Time;durP1;ratioP1;P1;durP2;ratioP2;P2;SDS_P1;SDS_P2;PMS_P1;PMS_P2;Temp;Humidity;BMP_temperature;BMP_pressure;BME280_temperature;BME280_humidity;BME280_pressure;Samples;Min_cycle;Max_cycle;Signal;HPM_P1;HPM_P2
2022/01/27 00:05:35;;;;;;;7.65;0.77;;;26.40;99.90;;;;;;5053065;28;20033;-66
2022/01/27 00:10:51;;;;;;;5.32;0.90;;;26.50;99.90;;;;;;5052531;28;20118;-65
2022/01/27 00:13:24;;;;;;;4.22;0.95;;;26.60;99.90;;;;;;5048252;28;20063;-66
2022/01/27 00:16:00;;;;;;;4.17;0.37;;;26.70;99.90;;;;;;5051171;28;20074;-66
2022/01/27 00:18:30;;;;;;;2.80;0.60;;;26.80;99.90;;;;;;5050776;28;20059;-65
2022/01/27 00:20:57;;;;;;;4.93;0.50;;;26.70;99.90;;;;;;5051700;28;20052;-66
2022/01/27 00:23:24;;;;;;;1.85;0.40;;;26.80;99.90;;;;;;5050091;28;20448;-66
2022/01/27 00:25:51;;;;;;;5.43;0.60;;;26.70;99.90;;;;;;5051559;28;20116;-66
2022/01/27 00:28:19;;;;;;;4.35;0.50;;;27.00;99.90;;;;;;5051017;28;20346;-66
2022/01/27 00:30:47;;;;;;;7.32;0.68;;;27.10;99.90;;;;;;5052434;28;20083;-66
2022/01/27 00:33:14;;;;;;;4.55;0.32;;;26.90;99.90;;;;;;5048267;28;20037;-66
2022/01/27 00:35:41;;;;;;;1.63;0.45;;;26.90;99.90;;;;;;5050999;28;20477;-66
2022/01/27 00:38:09;;;;;;;2.95;0.80;;;27.10;99.90;;;;;;5051516;28;20021;-65
2022/01/27 00:40:36;;;;;;;2.60;0.50;;;27.20;99.90;;;;;;5052241;28;20026;-66
2022/01/27 00:43:03;;;;;;;4.28;0.77;;;27.30;99.90;;;;;;5050209;28;20025;-66
2022/01/27 00:45:32;;;;;;;4.45;0.50;;;27.20;99.90;;;;;;5052380;28;20115;-66
2022/01/27 00:48:03;;;;;;;2.95;0.57;;;27.20;99.90;;;;;;5055394;28;20061;-66
2022/01/27 00:50:32;;;;;;;3.40;0.47;;;27.10;99.90;;;;;;5054895;28;20033;-66
2022/01/27 00:53:03;;;;;;;4.75;0.77;;;27.10;99.90;;;;;;5055398;28;20078;-67
2022/01/27 00:55:37;;;;;;;2.67;0.35;;;27.10;99.90;;;;;;5056648;28;20031;-66
2022/01/27 01:00:42;;;;;;;6.18;0.73;;;27.20;99.90;;;;;;5056356;28;19912;-66
2022/01/27 01:03:21;;;;;;;3.83;0.98;;;27.40;99.90;;;;;;5055939;28;20060;-66
2022/01/27 01:09:15;;;;;;;6.22;1.00;;;27.30;99.90;;;;;;5052502;28;20024;-66
2022/01/27 01:11:46;;;;;;;6.40;0.73;;;27.40;99.90;;;;;;5053891;28;20032;-66
2022/01/27 01:32:53;;;;;;;5.28;0.60;;;27.70;99.90;;;;;;5046981;28;20099;-66
2022/01/27 01:35:28;;;;;;;3.65;1.20;;;28.00;99.90;;;;;;5054693;28;20021;-66
2022/01/27 01:37:59;;;;;;;3.63;0.40;;;27.90;99.90;;;;;;5052442;28;20029;-66
2022/01/27 01:40:26;;;;;;;3.83;0.68;;;27.50;99.90;;;;;;5053611;28;20039;-66
2022/01/27 01:42:54;;;;;;;2.60;0.55;;;27.40;99.90;;;;;;5053504;28;20115;-66
2022/01/27 01:45:26;;;;;;;3.08;0.68;;;27.70;99.90;;;;;;5055737;28;20017;-66
2022/01/27 01:47:54;;;;;;;5.07;0.40;;;27.80;99.90;;;;;;5054560;28;20474;-67
2022/01/27 01:50:22;;;;;;;3.28;0.30;;;27.50;99.90;;;;;;5054575;28;20029;-66
2022/01/27 01:52:51;;;;;;;4.43;0.63;;;27.30;99.90;;;;;;5053516;28;20063;-66
2022/01/27 01:55:18;;;;;;;5.00;0.55;;;27.00;99.90;;;;;;5055722;28;20025;-66
2022/01/27 01:57:46;;;;;;;2.58;0.32;;;26.80;99.90;;;;;;5054059;28;20033;-66
2022/01/27 02:00:14;;;;;;;3.30;0.63;;;26.60;99.90;;;;;;5055288;28;20017;-66
2022/01/27 02:02:42;;;;;;;6.47;0.88;;;26.60;99.90;;;;;;5053856;28;20132;-67
2022/01/27 02:05:09;;;;;;;3.05;0.35;;;26.60;99.90;;;;;;5054039;28;20107;-66
2022/01/27 02:08:00;;;;;;;3.17;0.55;;;26.50;99.90;;;;;;5053108;28;20393;-66
2022/01/27 02:17:50;;;;;;;5.07;0.80;;;26.40;99.90;;;;;;5054234;28;20127;-66
2022/01/27 02:19:09;;;;;;;3.35;0.52;;;26.30;99.90;;;;;;5035058;28;20048;-66
2022/01/27 02:22:03;;;;;;;6.68;0.40;;;26.40;99.90;;;;;;5051675;28;20048;-66
2022/01/27 02:24:31;;;;;;;;;;;26.80;99.90;;;;;;5048155;28;20063;-66
2022/01/27 02:26:59;;;;;;;5.07;0.95;;;27.50;99.90;;;;;;5053500;28;19917;-67
2022/01/27 02:29:27;;;;;;;6.07;0.55;;;27.50;99.90;;;;;;5054989;28;20026;-66
2022/01/27 02:31:57;;;;;;;4.30;0.50;;;27.30;99.90;;;;;;5054057;28;20025;-66
2022/01/27 02:34:25;;;;;;;5.00;0.68;;;27.00;99.90;;;;;;5055031;28;20021;-67
2022/01/27 02:36:52;;;;;;;3.60;0.57;;;27.00;99.90;;;;;;5052141;28;20461;-66
2022/01/27 02:39:20;;;;;;;4.13;0.63;;;27.20;99.90;;;;;;5054585;28;20075;-66
2022/01/27 02:41:55;;;;;;;5.00;0.65;;;27.60;99.90;;;;;;5050946;28;20037;-66
2022/01/27 02:44:53;;;;;;;6.15;0.70;;;27.90;99.90;;;;;;5054483;28;20028;-66
2022/01/27 02:47:23;;;;;;;2.53;0.43;;;28.00;99.90;;;;;;5035572;28;20493;-66
2022/01/27 02:49:50;;;;;;;4.43;0.57;;;27.80;99.90;;;;;;5053558;28;20388;-66
2022/01/27 02:52:18;;;;;;;3.88;0.52;;;28.00;99.90;;;;;;5050575;28;20104;-66
2022/01/27 02:54:45;;;;;;;3.72;0.38;;;28.00;99.90;;;;;;5047179;28;20033;-66
2022/01/27 02:57:12;;;;;;;4.53;0.60;;;27.90;99.90;;;;;;5052227;28;20025;-66
2022/01/27 02:59:40;;;;;;;3.72;0.60;;;27.90;99.90;;;;;;5054363;28;20091;-66
2022/01/27 03:02:07;;;;;;;5.68;0.70;;;27.80;99.90;;;;;;5053579;28;20064;-66
2022/01/27 03:04:34;;;;;;;4.65;1.08;;;27.90;99.90;;;;;;5054189;28;20028;-66
2022/01/27 03:07:07;;;;;;;3.97;0.47;;;28.00;99.90;;;;;;5052788;28;20021;-66
2022/01/27 03:09:35;;;;;;;10.82;1.08;;;27.50;99.90;;;;;;5053228;28;20017;-66
2022/01/27 03:12:10;;;;;;;8.20;0.52;;;27.50;99.90;;;;;;5052523;28;20040;-66
2022/01/27 03:14:39;;;;;;;3.30;0.63;;;27.30;99.90;;;;;;5050217;28;20033;-67
2022/01/27 03:17:08;;;;;;;5.72;1.10;;;27.50;99.90;;;;;;5054177;28;20104;-66
2022/01/27 03:19:37;;;;;;;4.25;0.77;;;27.60;99.90;;;;;;5052782;28;20032;-66
2022/01/27 03:22:06;;;;;;;5.25;0.38;;;27.90;99.90;;;;;;5052645;28;20072;-66
2022/01/27 03:24:33;;;;;;;4.63;0.82;;;28.20;99.90;;;;;;5053421;28;20013;-67
2022/01/27 03:27:01;;;;;;;3.25;0.70;;;27.70;99.90;;;;;;5052042;28;20041;-67
2022/01/27 03:29:29;;;;;;;3.67;0.45;;;27.80;99.90;;;;;;5051200;28;20052;-67
2022/01/27 03:31:56;;;;;;;4.03;0.73;;;27.80;99.90;;;;;;5052694;28;20021;-67
2022/01/27 03:34:24;;;;;;;6.18;0.55;;;27.80;99.90;;;;;;5053040;28;20025;-66
2022/01/27 03:36:51;;;;;;;7.40;0.40;;;27.90;99.90;;;;;;5052107;28;20386;-67
2022/01/27 03:39:21;;;;;;;3.35;0.60;;;28.00;99.90;;;;;;5051605;28;20039;-66
2022/01/27 03:41:53;;;;;;;3.47;0.50;;;27.90;99.90;;;;;;5050975;28;20017;-67
2022/01/27 03:44:22;;;;;;;4.43;0.95;;;27.80;99.90;;;;;;5053605;28;20107;-66
2022/01/27 03:46:55;;;;;;;5.72;0.50;;;27.80;99.90;;;;;;5051121;28;20486;-66
2022/01/27 03:49:23;;;;;;;6.35;0.68;;;27.60;99.90;;;;;;5052472;28;20025;-66
2022/01/27 03:51:50;;;;;;;4.85;0.80;;;27.40;99.90;;;;;;5051171;28;20017;-66
2022/01/27 03:54:18;;;;;;;5.45;1.10;;;27.20;99.90;;;;;;5052259;28;20025;-66
2022/01/27 03:56:45;;;;;;;7.18;0.57;;;26.80;99.90;;;;;;5051397;28;20035;-66
2022/01/27 03:59:12;;;;;;;7.20;0.90;;;26.80;99.90;;;;;;5053353;28;20053;-66
2022/01/27 04:01:39;;;;;;;4.85;1.13;;;26.70;99.90;;;;;;5052108;28;20096;-66
2022/01/27 04:04:07;;;;;;;8.93;1.05;;;26.80;99.90;;;;;;5052756;28;20130;-66
2022/01/27 04:06:38;;;;;;;5.25;0.77;;;26.60;99.90;;;;;;5051726;28;20021;-66
2022/01/27 04:09:07;;;;;;;4.00;0.75;;;26.60;99.90;;;;;;5043226;28;20021;-66
2022/01/27 04:11:34;;;;;;;6.57;1.38;;;26.70;99.90;;;;;;5053239;28;20021;-66
2022/01/27 04:14:02;;;;;;;7.70;1.00;;;26.80;99.90;;;;;;5045916;28;20067;-66
2022/01/27 04:16:29;;;;;;;7.90;0.60;;;26.70;99.90;;;;;;5051517;28;20043;-66
2022/01/27 04:18:57;;;;;;;5.80;0.82;;;26.60;99.90;;;;;;5052114;28;20545;-66
2022/01/27 04:21:24;;;;;;;8.27;1.33;;;26.40;99.90;;;;;;5052356;28;20025;-66
2022/01/27 04:23:54;;;;;;;5.00;0.70;;;26.30;99.90;;;;;;5052448;28;20068;-66
2022/01/27 04:26:29;;;;;;;7.43;0.82;;;26.30;99.90;;;;;;5052457;28;20049;-66
2022/01/27 04:28:57;;;;;;;7.45;0.73;;;26.40;99.90;;;;;;5052426;28;20489;-66
2022/01/27 04:31:26;;;;;;;9.68;1.30;;;26.40;99.90;;;;;;5052059;28;20104;-67
2022/01/27 04:33:54;;;;;;;5.68;0.90;;;26.10;99.90;;;;;;5052474;28;20048;-66
2022/01/27 04:36:31;;;;;;;8.45;1.40;;;26.20;99.90;;;;;;5051581;28;20017;-66
2022/01/27 04:41:49;;;;;;;5.05;0.60;;;26.10;99.90;;;;;;5050876;28;20259;-66
2022/01/27 04:49:14;;;;;;;3.75;0.82;;;26.10;99.90;;;;;;5052415;28;20111;-67
2022/01/27 04:51:41;;;;;;;5.32;1.05;;;26.20;99.90;;;;;;5050249;28;20025;-66
2022/01/27 04:54:19;;;;;;;5.55;1.05;;;26.40;99.90;;;;;;5052325;28;20396;-66
2022/01/27 04:56:46;;;;;;;7.97;0.63;;;26.50;99.90;;;;;;5051349;28;20029;-66
2022/01/27 04:59:27;;;;;;;5.93;0.82;;;26.50;99.90;;;;;;5051782;28;20021;-66
2022/01/27 05:02:01;;;;;;;6.15;0.63;;;26.60;99.90;;;;;;5049169;28;20029;-66
2022/01/27 05:04:34;;;;;;;;;;;26.60;99.90;;;;;;5049300;28;20025;-66
2022/01/27 05:07:02;;;;;;;11.90;1.17;;;26.50;99.90;;;;;;5049898;28;20003;-66
2022/01/27 05:09:29;;;;;;;6.82;0.80;;;26.50;99.90;;;;;;5051095;28;20021;-66
2022/01/27 05:12:08;;;;;;;5.13;0.60;;;26.50;99.90;;;;;;5047902;28;20481;-66
2022/01/27 05:14:36;;;;;;;7.18;0.82;;;26.50;99.90;;;;;;5051905;28;20021;-66
2022/01/27 05:17:04;;;;;;;6.95;1.02;;;26.30;99.90;;;;;;5051009;28;20024;-66
2022/01/27 05:19:31;;;;;;;5.72;1.13;;;26.10;99.90;;;;;;5052296;28;20025;-66
2022/01/27 05:21:59;;;;;;;9.43;0.88;;;26.10;99.90;;;;;;5050858;28;20132;-66
2022/01/27 05:24:26;;;;;;;3.90;0.63;;;26.00;99.90;;;;;;5051279;28;20021;-66
2022/01/27 05:26:53;;;;;;;5.93;0.80;;;26.10;99.90;;;;;;5051023;28;20091;-66
2022/01/27 05:29:20;;;;;;;5.65;0.70;;;26.30;99.90;;;;;;5051308;28;20045;-66
2022/01/27 05:31:49;;;;;;;4.05;0.57;;;26.40;99.90;;;;;;5051843;28;20017;-66
2022/01/27 05:34:16;;;;;;;6.13;1.15;;;26.50;99.90;;;;;;5054984;28;20021;-66
2022/01/27 05:36:44;;;;;;;8.73;0.80;;;26.50;99.90;;;;;;5053640;28;20035;-66
2022/01/27 05:39:12;;;;;;;6.30;0.43;;;26.50;99.90;;;;;;5055627;28;20551;-66
2022/01/27 05:41:39;;;;;;;5.40;0.93;;;26.50;99.90;;;;;;5052112;28;20450;-66
2022/01/27 05:44:06;;;;;;;3.58;0.50;;;26.60;99.90;;;;;;5053646;28;20029;-66
2022/01/27 05:46:34;;;;;;;6.97;0.88;;;26.40;99.90;;;;;;5052504;28;20029;-66
2022/01/27 05:49:01;;;;;;;4.97;0.60;;;26.50;99.90;;;;;;5038657;28;20040;-66
2022/01/27 05:51:29;;;;;;;4.15;0.73;;;26.40;99.90;;;;;;5053694;28;20465;-66
2022/01/27 05:53:56;;;;;;;5.47;0.90;;;26.40;99.90;;;;;;5053902;28;20029;-66
2022/01/27 05:56:23;;;;;;;4.80;1.05;;;26.50;99.90;;;;;;5035483;28;20108;-67
2022/01/27 05:58:51;;;;;;;8.50;1.45;;;26.40;99.90;;;;;;5055383;28;20111;-66
2022/01/27 06:01:18;;;;;;;9.75;0.95;;;26.20;99.90;;;;;;5054204;28;20024;-67
2022/01/27 06:03:45;;;;;;;8.35;0.88;;;26.20;99.90;;;;;;5054092;28;20162;-66
2022/01/27 06:06:12;;;;;;;6.78;1.02;;;26.30;99.90;;;;;;5054008;28;20036;-67
2022/01/27 06:08:40;;;;;;;5.25;0.70;;;26.30;99.90;;;;;;5053951;28;20167;-66
2022/01/27 06:11:07;;;;;;;5.78;0.70;;;26.20;99.90;;;;;;5055048;28;20021;-67
2022/01/27 06:13:36;;;;;;;9.43;1.15;;;26.30;99.90;;;;;;5054076;28;20040;-67
2022/01/27 06:16:09;;;;;;;5.68;1.02;;;26.10;99.90;;;;;;5055176;28;20021;-66
2022/01/27 06:18:38;;;;;;;5.32;1.13;;;25.90;99.90;;;;;;5054166;28;20059;-66
2022/01/27 06:21:10;;;;;;;5.65;0.88;;;26.00;99.90;;;;;;5053880;28;20025;-66
2022/01/27 06:23:37;;;;;;;6.43;1.33;;;26.00;99.90;;;;;;5053847;28;20106;-66
2022/01/27 06:26:05;;;;;;;5.28;0.60;;;26.00;99.90;;;;;;5054403;28;20473;-67
2022/01/27 06:28:32;;;;;;;5.50;0.73;;;25.80;99.90;;;;;;5053725;28;20134;-67
2022/01/27 06:30:59;;;;;;;5.75;0.60;;;25.70;99.90;;;;;;5054689;28;20044;-67
2022/01/27 06:33:27;;;;;;;6.72;0.85;;;25.40;99.90;;;;;;5052609;28;20100;-67
2022/01/27 06:35:55;;;;;;;6.45;0.82;;;25.40;99.90;;;;;;5054656;28;20044;-66
2022/01/27 06:38:22;;;;;;;6.90;1.35;;;25.20;99.90;;;;;;5053598;28;20025;-66
2022/01/27 06:40:49;;;;;;;5.20;0.73;;;25.10;99.90;;;;;;5053334;28;20675;-67
2022/01/27 06:43:17;;;;;;;7.68;0.77;;;25.00;99.90;;;;;;5052193;28;20608;-66
2022/01/27 06:45:44;;;;;;;8.13;0.60;;;25.00;99.90;;;;;;5054182;28;20021;-66
2022/01/27 06:48:11;;;;;;;6.03;0.70;;;25.00;99.90;;;;;;5052720;28;20438;-66
2022/01/27 06:50:39;;;;;;;8.75;1.10;;;25.00;99.90;;;;;;5050155;28;20059;-66
2022/01/27 06:53:08;;;;;;;5.40;0.50;;;25.00;99.90;;;;;;5052489;28;20021;-66
2022/01/27 06:55:37;;;;;;;5.43;0.55;;;24.90;99.90;;;;;;5053736;28;20513;-67
2022/01/27 06:58:04;;;;;;;2.78;0.50;;;24.90;99.90;;;;;;5051622;28;20021;-67
2022/01/27 07:00:31;;;;;;;6.43;0.63;;;24.80;99.90;;;;;;5037510;28;20021;-66
2022/01/27 07:02:58;;;;;;;7.18;0.77;;;24.70;99.90;;;;;;5053075;28;20082;-67
2022/01/27 07:05:26;;;;;;;4.55;0.80;;;24.70;99.90;;;;;;5053075;28;20036;-67
2022/01/27 07:07:53;;;;;;;4.93;1.35;;;24.70;99.90;;;;;;5053041;28;20083;-66
2022/01/27 07:10:20;;;;;;;3.83;0.45;;;24.70;99.90;;;;;;5054130;28;20552;-67
2022/01/27 07:12:48;;;;;;;10.10;0.60;;;24.70;99.90;;;;;;5053387;28;20452;-67
2022/01/27 07:15:15;;;;;;;5.88;1.15;;;24.70;99.90;;;;;;5053967;28;20044;-68
2022/01/27 07:17:44;;;;;;;3.97;0.47;;;24.70;99.90;;;;;;5052122;28;20051;-67
2022/01/27 07:20:12;;;;;;;7.90;1.00;;;24.60;99.90;;;;;;5053235;28;20033;-67
2022/01/27 07:22:40;;;;;;;6.43;0.95;;;24.50;99.90;;;;;;5052700;28;20089;-68
2022/01/27 07:25:09;;;;;;;2.95;0.82;;;24.50;99.90;;;;;;5052807;28;20085;-67
2022/01/27 07:27:37;;;;;;;5.60;0.88;;;24.50;99.90;;;;;;5051878;28;20049;-68
2022/01/27 07:30:06;;;;;;;4.20;0.68;;;24.50;99.90;;;;;;5052891;28;20029;-68
2022/01/27 07:32:33;;;;;;;9.05;0.93;;;24.50;99.90;;;;;;5050397;28;20017;-67
2022/01/27 07:35:01;;;;;;;8.25;0.85;;;24.50;99.90;;;;;;5052160;28;20031;-67
2022/01/27 07:37:28;;;;;;;5.22;0.88;;;24.50;99.90;;;;;;5052499;28;20021;-67
2022/01/27 07:39:55;;;;;;;4.97;0.82;;;24.50;99.90;;;;;;5053371;28;20508;-67
2022/01/27 07:42:23;;;;;;;6.45;0.85;;;24.40;99.90;;;;;;5050667;28;20079;-67
2022/01/27 07:44:50;;;;;;;5.55;0.80;;;24.30;99.90;;;;;;5051747;28;20422;-67
2022/01/27 07:47:17;;;;;;;5.72;0.80;;;24.30;99.90;;;;;;5042327;28;20047;-67
2022/01/27 07:49:45;;;;;;;6.22;1.27;;;24.30;99.90;;;;;;5053698;28;20025;-67
2022/01/27 07:52:12;;;;;;;5.43;1.05;;;24.30;99.90;;;;;;5051720;28;20039;-67
2022/01/27 07:54:40;;;;;;;5.90;0.73;;;24.30;99.90;;;;;;5052072;28;20033;-67
2022/01/27 07:57:08;;;;;;;3.65;0.47;;;24.30;99.90;;;;;;5050127;28;20021;-67
2022/01/27 07:59:35;;;;;;;6.40;0.95;;;24.30;99.90;;;;;;5052012;28;20051;-67
2022/01/27 08:02:02;;;;;;;5.55;0.82;;;24.20;99.90;;;;;;5049759;28;20021;-67
2022/01/27 08:04:29;;;;;;;4.50;0.50;;;24.20;99.90;;;;;;5053181;28;20017;-67
2022/01/27 08:06:57;;;;;;;11.98;1.33;;;24.20;99.90;;;;;;5052279;28;20024;-67
2022/01/27 08:09:25;;;;;;;8.52;1.38;;;24.20;99.90;;;;;;5053030;28;20025;-67
2022/01/27 08:11:52;;;;;;;5.57;1.02;;;24.10;99.90;;;;;;5051867;28;20040;-67
2022/01/27 08:14:19;;;;;;;9.45;1.67;;;24.10;99.90;;;;;;5051082;28;20071;-67
2022/01/27 08:16:47;;;;;;;8.23;1.50;;;24.10;99.90;;;;;;5051919;28;20025;-67
2022/01/27 08:19:14;;;;;;;6.68;1.15;;;24.10;99.90;;;;;;5052802;28;20028;-67
2022/01/27 08:21:42;;;;;;;5.43;0.73;;;24.00;99.90;;;;;;5051773;28;20017;-67
2022/01/27 08:24:09;;;;;;;5.25;0.88;;;24.00;99.90;;;;;;5052846;28;20142;-67
2022/01/27 08:26:41;;;;;;;7.47;1.02;;;23.90;99.90;;;;;;5048980;28;20064;-67
2022/01/27 08:31:55;;;;;;;3.67;0.70;;;23.90;99.90;;;;;;5051813;28;20033;-67
2022/01/27 08:34:39;;;;;;;5.43;1.10;;;23.90;99.90;;;;;;5051980;28;20039;-67
2022/01/27 08:37:09;;;;;;;4.68;0.80;;;23.90;99.90;;;;;;5050487;28;20064;-68
2022/01/27 08:39:38;;;;;;;14.48;1.25;;;23.90;99.90;;;;;;5050397;28;20017;-68
2022/01/27 08:42:07;;;;;;;16.23;1.63;;;23.90;99.90;;;;;;5050368;28;20481;-67
2022/01/27 08:44:34;;;;;;;7.05;1.02;;;23.90;99.90;;;;;;5051630;28;20021;-65
2022/01/27 08:47:02;;;;;;;10.75;1.77;;;23.80;99.90;;;;;;5051287;28;20153;-65
2022/01/27 08:49:29;;;;;;;6.47;0.88;;;23.80;99.90;;;;;;5052274;28;20029;-65
2022/01/27 08:51:58;;;;;;;4.63;0.60;;;23.80;99.90;;;;;;5050492;28;20025;-65
2022/01/27 08:54:26;;;;;;;5.35;0.70;;;23.80;99.90;;;;;;5052676;28;20493;-68
2022/01/27 08:56:54;;;;;;;5.25;0.70;;;23.80;99.90;;;;;;5050298;28;20017;-68
2022/01/27 08:59:21;;;;;;;10.52;0.95;;;23.80;99.90;;;;;;5052136;28;20021;-69
2022/01/27 09:01:48;;;;;;;8.25;1.23;;;23.70;99.90;;;;;;5049768;28;20474;-68
2022/01/27 09:04:16;;;;;;;6.50;1.10;;;23.80;99.90;;;;;;5052075;28;20047;-65
2022/01/27 09:06:43;;;;;;;7.65;0.88;;;23.70;99.90;;;;;;5052046;28;20726;-67
2022/01/27 09:09:10;;;;;;;8.25;1.30;;;23.70;99.90;;;;;;5056694;28;20043;-68
2022/01/27 09:11:39;;;;;;;5.72;1.08;;;23.70;99.90;;;;;;5055310;28;20104;-68
2022/01/27 09:14:07;;;;;;;12.30;1.10;;;23.60;99.90;;;;;;5054427;28;20566;-67
2022/01/27 09:16:35;;;;;;;6.22;1.13;;;23.60;99.90;;;;;;5055327;28;20420;-68
2022/01/27 09:19:04;;;;;;;7.20;0.80;;;23.60;99.90;;;;;;5035806;28;20036;-68
2022/01/27 09:21:45;;;;;;;13.13;1.42;;;23.60;99.90;;;;;;5053563;28;20033;-67
2022/01/27 09:24:19;;;;;;;4.22;1.30;;;23.60;99.90;;;;;;5035955;28;20030;-66
2022/01/27 09:29:16;;;;;;;10.48;1.05;;;23.60;99.90;;;;;;5050992;28;20056;-66
2022/01/27 09:31:44;;;;;;;9.82;1.40;;;23.50;99.90;;;;;;5045070;28;20025;-66
2022/01/27 09:34:11;;;;;;;6.75;0.90;;;23.50;99.90;;;;;;5052985;28;20036;-66
2022/01/27 09:36:39;;;;;;;9.13;1.20;;;23.50;99.90;;;;;;5052313;28;20037;-66
2022/01/27 09:39:07;;;;;;;14.00;1.80;;;23.60;99.90;;;;;;5054695;28;20527;-66
2022/01/27 09:41:38;;;;;;;7.68;1.27;;;23.50;99.90;;;;;;5051494;28;20029;-66
2022/01/27 09:44:10;;;;;;;12.55;1.95;;;23.50;99.90;;;;;;5045871;28;20029;-66
2022/01/27 09:46:40;;;;;;;7.10;1.60;;;23.50;99.90;;;;;;5050169;28;20024;-66
2022/01/27 09:49:14;;;;;;;10.00;1.80;;;23.50;99.90;;;;;;5055065;28;20040;-66
2022/01/27 09:51:45;;;;;;;5.80;1.85;;;23.50;99.90;;;;;;5054444;28;20493;-66
2022/01/27 09:54:16;;;;;;;8.48;1.00;;;23.50;99.90;;;;;;5055615;28;20122;-66
2022/01/27 09:56:47;;;;;;;10.77;1.67;;;23.50;99.90;;;;;;5054639;28;20082;-66
2022/01/27 09:59:18;;;;;;;4.95;0.60;;;23.40;99.90;;;;;;5054513;28;20029;-65
2022/01/27 10:02:06;;;;;;;11.60;1.40;;;23.40;99.90;;;;;;5045537;28;20025;-66
2022/01/27 10:04:49;;;;;;;7.80;1.17;;;23.40;99.90;;;;;;5055403;28;20043;-66
2022/01/27 10:07:20;;;;;;;6.57;1.52;;;23.40;99.90;;;;;;5053920;28;20016;-66
2022/01/27 10:10:12;;;;;;;11.18;1.92;;;23.40;99.90;;;;;;5055144;28;20031;-66
2022/01/27 10:12:42;;;;;;;11.07;1.42;;;23.40;99.90;;;;;;5054319;28;20025;-66
2022/01/27 10:15:17;;;;;;;9.52;1.35;;;23.40;99.90;;;;;;5054438;28;20029;-66
2022/01/27 10:18:25;;;;;;;5.22;0.93;;;23.40;99.90;;;;;;5053771;28;20048;-66
2022/01/27 10:21:04;;;;;;;11.45;1.38;;;23.30;99.90;;;;;;5052922;28;20035;-66
2022/01/27 10:23:33;;;;;;;11.88;1.20;;;23.30;99.90;;;;;;5053514;28;20482;-66
2022/01/27 10:26:12;;;;;;;11.43;1.55;;;23.30;99.90;;;;;;5053848;28;20021;-67
2022/01/27 10:29:04;;;;;;;9.65;1.10;;;23.30;99.90;;;;;;5051425;28;20482;-67
2022/01/27 10:31:31;;;;;;;8.07;1.80;;;23.30;99.90;;;;;;5053598;28;20029;-67
2022/01/27 10:34:07;;;;;;;8.75;1.20;;;23.30;99.90;;;;;;5055192;28;20100;-66
2022/01/27 10:36:44;;;;;;;10.63;1.27;;;23.30;99.90;;;;;;5053573;28;20066;-67
2022/01/27 10:39:16;;;;;;;8.43;0.70;;;23.30;99.90;;;;;;5034945;28;20033;-67
2022/01/27 10:42:08;;;;;;;7.30;1.38;;;23.30;99.90;;;;;;5039222;28;20214;-67
2022/01/27 10:44:47;;;;;;;7.90;0.98;;;23.30;99.90;;;;;;5053255;28;20037;-65
2022/01/27 10:47:21;;;;;;;7.95;0.90;;;23.20;99.90;;;;;;5053723;28;20024;-65
2022/01/27 10:49:57;;;;;;;6.47;1.27;;;23.20;99.90;;;;;;5054476;28;20021;-67
2022/01/27 10:52:44;;;;;;;9.52;1.58;;;23.30;99.90;;;;;;5053195;28;20086;-66
2022/01/27 10:55:14;;;;;;;5.97;1.35;;;23.30;99.90;;;;;;5054136;28;20025;-66
2022/01/27 10:57:49;;;;;;;11.13;1.30;;;23.40;99.90;;;;;;5053385;28;20394;-67
2022/01/27 11:00:20;;;;;;;10.98;1.10;;;23.40;99.90;;;;;;5054808;28;20422;-68
2022/01/27 11:02:56;;;;;;;8.35;0.98;;;23.40;99.90;;;;;;5051992;28;20029;-66
2022/01/27 11:05:26;;;;;;;7.13;1.05;;;23.30;99.90;;;;;;5053474;28;20028;-66
2022/01/27 11:07:54;;;;;;;10.65;1.40;;;23.30;99.90;;;;;;5053146;28;20421;-66
2022/01/27 11:10:21;;;;;;;11.82;1.33;;;23.30;99.90;;;;;;5053986;28;20114;-66
2022/01/27 11:12:50;;;;;;;8.32;1.02;;;23.30;99.90;;;;;;5053173;28;20032;-66
2022/01/27 11:15:18;;;;;;;9.48;1.15;;;23.30;99.90;;;;;;5058305;28;20287;-66
2022/01/27 11:17:48;;;;;;;9.13;1.30;;;23.30;99.90;;;;;;5055875;28;20486;-65
2022/01/27 11:20:23;;;;;;;9.38;1.15;;;23.30;99.90;;;;;;5034261;28;20116;-66
2022/01/27 11:23:11;;;;;;;7.65;1.13;;;23.40;99.90;;;;;;5046529;28;20037;-67
2022/01/27 11:28:07;;;;;;;8.43;0.77;;;23.30;99.90;;;;;;5052743;28;20412;-66
2022/01/27 11:30:57;;;;;;;8.55;1.35;;;23.30;99.90;;;;;;5051883;28;20096;-66
2022/01/27 11:33:33;;;;;;;9.27;1.58;;;23.30;99.90;;;;;;5052694;28;20035;-66
2022/01/27 11:36:09;;;;;;;10.65;0.95;;;23.30;99.90;;;;;;5052216;28;20066;-66
2022/01/27 11:38:39;;;;;;;9.48;1.00;;;23.30;99.90;;;;;;5052182;28;20017;-67
2022/01/27 11:41:06;;;;;;;9.68;1.00;;;23.30;99.90;;;;;;5053352;28;20032;-66
2022/01/27 11:43:34;;;;;;;13.07;2.08;;;23.30;99.90;;;;;;5052226;28;20482;-65
2022/01/27 11:46:21;;;;;;;6.97;0.85;;;23.30;99.90;;;;;;5053258;28;20083;-65
2022/01/27 11:48:49;;;;;;;7.60;1.30;;;23.30;99.90;;;;;;5051712;28;20031;-65
2022/01/27 11:51:16;;;;;;;7.35;1.58;;;23.30;99.90;;;;;;5050493;28;20049;-65
2022/01/27 11:53:49;;;;;;;8.07;0.85;;;23.30;99.90;;;;;;5052390;28;20391;-65
2022/01/27 11:56:29;;;;;;;6.15;1.10;;;23.30;99.90;;;;;;5053100;28;20021;-65
2022/01/27 11:59:06;;;;;;;9.90;1.42;;;23.30;99.90;;;;;;5052984;28;20029;-65
2022/01/27 12:01:37;;;;;;;11.10;1.23;;;23.20;99.90;;;;;;5051871;28;20017;-65
2022/01/27 12:04:05;;;;;;;11.25;1.30;;;23.30;99.90;;;;;;5050002;28;20037;-65
2022/01/27 12:06:41;;;;;;;6.75;1.17;;;23.30;99.90;;;;;;5051903;28;20075;-66
2022/01/27 12:09:20;;;;;;;10.05;1.30;;;23.20;99.90;;;;;;5033091;28;20021;-65
2022/01/27 12:11:53;;;;;;;11.10;1.35;;;23.20;99.90;;;;;;5041634;28;20021;-66
2022/01/27 12:14:29;;;;;;;10.90;1.10;;;23.20;99.90;;;;;;5051729;28;20036;-66
2022/01/27 12:17:16;;;;;;;8.18;1.13;;;23.20;99.90;;;;;;5050330;28;20385;-67
2022/01/27 12:20:07;;;;;;;8.70;1.58;;;23.20;99.90;;;;;;5055083;28;20062;-67
2022/01/27 12:22:46;;;;;;;7.90;1.45;;;23.20;99.90;;;;;;5052028;28;20044;-66
2022/01/27 12:25:15;;;;;;;7.47;0.80;;;23.20;99.90;;;;;;5053094;28;20079;-66
2022/01/27 12:27:58;;;;;;;8.40;1.95;;;23.20;99.90;;;;;;5051296;28;20379;-66
2022/01/27 12:30:25;;;;;;;18.05;1.63;;;23.20;99.90;;;;;;5051816;28;20112;-66
2022/01/27 12:32:58;;;;;;;9.00;1.38;;;23.20;99.90;;;;;;5052126;28;20040;-66
2022/01/27 12:35:25;;;;;;;8.50;1.05;;;23.20;99.90;;;;;;5053278;28;20424;-66
2022/01/27 12:37:55;;;;;;;5.53;0.90;;;23.20;99.90;;;;;;5051857;28;20032;-67
2022/01/27 12:40:29;;;;;;;12.95;1.95;;;23.20;99.90;;;;;;5052603;28;20017;-68
2022/01/27 12:43:01;;;;;;;14.00;1.27;;;23.20;99.90;;;;;;5050757;28;20036;-67
2022/01/27 12:45:30;;;;;;;9.68;1.15;;;23.20;99.90;;;;;;5051848;28;20024;-65
2022/01/27 12:48:07;;;;;;;5.15;0.75;;;23.20;99.90;;;;;;5051838;28;20025;-65
2022/01/27 12:50:35;;;;;;;8.02;1.25;;;23.20;99.90;;;;;;5052182;28;20474;-65
2022/01/27 12:53:07;;;;;;;9.75;1.00;;;23.20;99.90;;;;;;5051636;28;20112;-65
2022/01/27 12:55:37;;;;;;;10.70;1.15;;;23.20;99.90;;;;;;5052399;28;20056;-65
2022/01/27 12:58:13;;;;;;;9.77;1.58;;;23.20;99.90;;;;;;5051431;28;20021;-68
2022/01/27 13:00:51;;;;;;;8.90;1.70;;;23.20;99.90;;;;;;5052474;28;20060;-68
2022/01/27 13:03:21;;;;;;;5.97;1.25;;;23.20;99.90;;;;;;5051184;28;20033;-67
2022/01/27 13:05:53;;;;;;;11.98;1.50;;;23.20;99.90;;;;;;5052033;28;20254;-67
2022/01/27 13:08:26;;;;;;;11.98;1.30;;;23.20;99.90;;;;;;5051985;28;20028;-68
2022/01/27 13:11:01;;;;;;;10.48;1.15;;;23.20;99.90;;;;;;5050459;28;20032;-65
2022/01/27 13:13:35;;;;;;;7.38;1.20;;;23.20;99.90;;;;;;5049033;28;20493;-65
2022/01/27 13:16:05;;;;;;;;;;;23.20;99.90;;;;;;5052800;28;20017;-65
2022/01/27 13:19:00;;;;;;;9.73;1.05;;;23.20;99.90;;;;;;5050500;28;19962;-65
2022/01/27 13:21:33;;;;;;;10.38;1.45;;;23.20;99.90;;;;;;5050515;28;20045;-66
2022/01/27 13:24:06;;;;;;;11.45;1.33;;;23.20;99.90;;;;;;5039456;28;20090;-66
2022/01/27 13:26:34;;;;;;;7.93;1.67;;;23.20;99.90;;;;;;5050177;28;20146;-66
2022/01/27 13:29:02;;;;;;;10.65;1.58;;;23.20;99.90;;;;;;5032590;28;20033;-66
2022/01/27 13:31:29;;;;;;;7.05;0.68;;;23.20;99.90;;;;;;5039850;28;20070;-66
2022/01/27 13:34:02;;;;;;;11.43;1.83;;;23.20;99.90;;;;;;5051705;28;20021;-66
2022/01/27 13:36:35;;;;;;;13.52;1.88;;;23.20;99.90;;;;;;5051371;28;20052;-66
2022/01/27 13:41:42;;;;;;;9.85;1.02;;;23.20;99.90;;;;;;5036654;28;20033;-66
2022/01/27 13:44:17;;;;;;;;;;;23.20;99.90;;;;;;5052570;28;20397;-66
2022/01/27 13:47:02;;;;;;;9.90;1.15;;;23.20;99.90;;;;;;5050994;28;20578;-66
2022/01/27 13:49:32;;;;;;;14.68;1.58;;;23.20;99.90;;;;;;5051274;28;20428;-66
2022/01/27 13:52:11;;;;;;;11.52;1.65;;;23.20;99.90;;;;;;5048957;28;20041;-66
2022/01/27 13:55:02;;;;;;;8.73;1.50;;;23.20;99.90;;;;;;5055069;28;20029;-66
2022/01/27 13:57:36;;;;;;;8.75;1.17;;;23.20;99.90;;;;;;5054280;28;20037;-66
2022/01/27 14:00:12;;;;;;;10.00;1.48;;;23.20;99.90;;;;;;5054505;28;20031;-66